Farmersville's Hourly Summary for Monday, March 13, 2017
Hour Temp
(f)
RH
(%)
Solar Rad.
(MJ/m2)
Rainfall
(in)
Wind
(mph)
3/13/2017 12:00 AM 45 83 0 0 0
3/13/2017 1:00 AM 46 83 0 0 0.42
3/13/2017 2:00 AM 46 84 0 0 0.61
3/13/2017 3:00 AM 46 84 0 0 0.59
3/13/2017 4:00 AM 47 83 0 0 1.47
3/13/2017 5:00 AM 46 100 0 0.03 0.47
3/13/2017 6:00 AM 46 100 0 0 0.23
3/13/2017 7:00 AM 46 100 0 0 0.06
3/13/2017 8:00 AM 46 100 0 0 0.06
3/13/2017 9:00 AM 47 100 0.07 0 0.04
3/13/2017 10:00 AM 47 100 0.15 0.01 0.2
3/13/2017 11:00 AM 49 91 0.69 0 0.76
3/13/2017 12:00 PM 51 77 0.9 0 2.06
3/13/2017 1:00 PM 52 63 1.25 0 2.62
3/13/2017 2:00 PM 58 52 2.84 0 2.59
3/13/2017 3:00 PM 61 46 2.69 0 3.34
3/13/2017 4:00 PM 60 39 2.48 0 6.51
3/13/2017 5:00 PM 59 35 1.97 0 5.21
3/13/2017 6:00 PM 58 33 1.27 0 4.71
3/13/2017 7:00 PM 55 32 0.57 0 4.37
3/13/2017 8:00 PM 50 33 0.03 0 1.32
3/13/2017 9:00 PM 48 39 0 0 0.36
3/13/2017 10:00 PM 45 45 0 0 0.54
3/13/2017 11:00 PM 43 48 0 0 0.23
Data Summary 49 68 14.91 0.04 1.62